sensor_id;sensor_type;location;lat;lon;timestamp;P1;durP1;ratioP1;P2;durP2;ratioP2
11203;SDS011;5659;49.408;11.116;2023-03-04T00:01:30;37.53;;;21.63;;
11203;SDS011;5659;49.408;11.116;2023-03-04T00:03:56;45.97;;;21.47;;
11203;SDS011;5659;49.408;11.116;2023-03-04T00:06:22;41.27;;;19.57;;
11203;SDS011;5659;49.408;11.116;2023-03-04T00:08:48;38.17;;;21.23;;
11203;SDS011;5659;49.408;11.116;2023-03-04T00:11:14;42.90;;;20.90;;
11203;SDS011;5659;49.408;11.116;2023-03-04T00:13:40;41.53;;;20.43;;
11203;SDS011;5659;49.408;11.116;2023-03-04T00:16:06;39.87;;;21.80;;
11203;SDS011;5659;49.408;11.116;2023-03-04T00:18:32;40.20;;;21.67;;
11203;SDS011;5659;49.408;11.116;2023-03-04T00:20:58;48.90;;;22.40;;
11203;SDS011;5659;49.408;11.116;2023-03-04T00:23:24;47.50;;;22.00;;
11203;SDS011;5659;49.408;11.116;2023-03-04T00:25:50;44.27;;;21.87;;
11203;SDS011;5659;49.408;11.116;2023-03-04T00:28:16;36.97;;;20.43;;
11203;SDS011;5659;49.408;11.116;2023-03-04T00:30:42;37.43;;;20.27;;
11203;SDS011;5659;49.408;11.116;2023-03-04T00:33:08;36.30;;;20.37;;
11203;SDS011;5659;49.408;11.116;2023-03-04T00:35:34;36.83;;;20.90;;
11203;SDS011;5659;49.408;11.116;2023-03-04T00:38:00;40.33;;;21.10;;
11203;SDS011;5659;49.408;11.116;2023-03-04T00:40:26;35.67;;;20.23;;
11203;SDS011;5659;49.408;11.116;2023-03-04T00:42:52;33.93;;;20.43;;
11203;SDS011;5659;49.408;11.116;2023-03-04T00:45:18;37.50;;;19.90;;
11203;SDS011;5659;49.408;11.116;2023-03-04T00:47:44;33.37;;;18.70;;
11203;SDS011;5659;49.408;11.116;2023-03-04T00:50:10;37.10;;;20.20;;
11203;SDS011;5659;49.408;11.116;2023-03-04T00:52:36;35.73;;;20.33;;
11203;SDS011;5659;49.408;11.116;2023-03-04T00:55:02;36.73;;;20.30;;
11203;SDS011;5659;49.408;11.116;2023-03-04T00:57:28;38.97;;;19.33;;
11203;SDS011;5659;49.408;11.116;2023-03-04T00:59:54;41.27;;;21.93;;
11203;SDS011;5659;49.408;11.116;2023-03-04T01:02:20;36.73;;;20.83;;
11203;SDS011;5659;49.408;11.116;2023-03-04T01:04:46;38.33;;;20.53;;
11203;SDS011;5659;49.408;11.116;2023-03-04T01:07:12;43.87;;;21.93;;
11203;SDS011;5659;49.408;11.116;2023-03-04T01:09:38;38.27;;;21.60;;
11203;SDS011;5659;49.408;11.116;2023-03-04T01:12:04;45.03;;;21.37;;
11203;SDS011;5659;49.408;11.116;2023-03-04T01:14:30;34.83;;;20.03;;
11203;SDS011;5659;49.408;11.116;2023-03-04T01:16:56;33.43;;;19.77;;
11203;SDS011;5659;49.408;11.116;2023-03-04T01:19:22;34.80;;;19.87;;
11203;SDS011;5659;49.408;11.116;2023-03-04T01:21:48;34.23;;;19.47;;
11203;SDS011;5659;49.408;11.116;2023-03-04T01:24:14;27.77;;;17.70;;
11203;SDS011;5659;49.408;11.116;2023-03-04T01:26:40;32.20;;;18.77;;
11203;SDS011;5659;49.408;11.116;2023-03-04T01:29:06;33.10;;;18.60;;
11203;SDS011;5659;49.408;11.116;2023-03-04T01:31:32;32.40;;;17.97;;
11203;SDS011;5659;49.408;11.116;2023-03-04T01:33:58;29.73;;;18.20;;
11203;SDS011;5659;49.408;11.116;2023-03-04T01:36:24;33.97;;;17.20;;
11203;SDS011;5659;49.408;11.116;2023-03-04T01:38:50;27.23;;;17.07;;
11203;SDS011;5659;49.408;11.116;2023-03-04T01:41:16;30.30;;;16.77;;
11203;SDS011;5659;49.408;11.116;2023-03-04T01:43:43;29.60;;;17.03;;
11203;SDS011;5659;49.408;11.116;2023-03-04T01:46:10;25.20;;;15.30;;
11203;SDS011;5659;49.408;11.116;2023-03-04T01:48:39;24.33;;;15.53;;
11203;SDS011;5659;49.408;11.116;2023-03-04T01:51:06;25.27;;;16.00;;
11203;SDS011;5659;49.408;11.116;2023-03-04T01:53:35;27.83;;;16.50;;
11203;SDS011;5659;49.408;11.116;2023-03-04T01:56:04;28.77;;;15.67;;
11203;SDS011;5659;49.408;11.116;2023-03-04T01:58:35;26.07;;;16.37;;
11203;SDS011;5659;49.408;11.116;2023-03-04T02:01:01;27.10;;;16.00;;
11203;SDS011;5659;49.408;11.116;2023-03-04T02:03:27;23.20;;;15.57;;
11203;SDS011;5659;49.408;11.116;2023-03-04T02:05:53;29.30;;;16.97;;
11203;SDS011;5659;49.408;11.116;2023-03-04T02:08:20;28.97;;;16.10;;
11203;SDS011;5659;49.408;11.116;2023-03-04T02:10:47;26.67;;;16.27;;
11203;SDS011;5659;49.408;11.116;2023-03-04T02:13:14;25.93;;;16.03;;
11203;SDS011;5659;49.408;11.116;2023-03-04T02:15:41;27.33;;;16.63;;
11203;SDS011;5659;49.408;11.116;2023-03-04T02:18:12;23.97;;;14.50;;
11203;SDS011;5659;49.408;11.116;2023-03-04T02:20:44;24.47;;;14.60;;
11203;SDS011;5659;49.408;11.116;2023-03-04T02:23:33;25.77;;;16.80;;
11203;SDS011;5659;49.408;11.116;2023-03-04T02:26:22;25.30;;;15.27;;
11203;SDS011;5659;49.408;11.116;2023-03-04T02:28:49;23.57;;;15.10;;
11203;SDS011;5659;49.408;11.116;2023-03-04T02:33:45;27.60;;;16.27;;
11203;SDS011;5659;49.408;11.116;2023-03-04T02:36:11;26.70;;;15.03;;
11203;SDS011;5659;49.408;11.116;2023-03-04T02:38:37;25.67;;;16.00;;
11203;SDS011;5659;49.408;11.116;2023-03-04T02:41:03;28.13;;;15.53;;
11203;SDS011;5659;49.408;11.116;2023-03-04T02:43:29;26.43;;;15.27;;
11203;SDS011;5659;49.408;11.116;2023-03-04T02:45:55;26.83;;;15.70;;
11203;SDS011;5659;49.408;11.116;2023-03-04T02:48:21;26.43;;;16.97;;
11203;SDS011;5659;49.408;11.116;2023-03-04T02:50:51;23.53;;;15.50;;
11203;SDS011;5659;49.408;11.116;2023-03-04T02:53:18;26.63;;;15.80;;
11203;SDS011;5659;49.408;11.116;2023-03-04T02:55:45;25.27;;;16.67;;
11203;SDS011;5659;49.408;11.116;2023-03-04T02:58:11;28.23;;;15.73;;
11203;SDS011;5659;49.408;11.116;2023-03-04T03:00:37;24.70;;;16.57;;
11203;SDS011;5659;49.408;11.116;2023-03-04T03:03:03;29.07;;;16.80;;
11203;SDS011;5659;49.408;11.116;2023-03-04T03:05:30;28.40;;;16.13;;
11203;SDS011;5659;49.408;11.116;2023-03-04T03:07:56;27.70;;;16.60;;
11203;SDS011;5659;49.408;11.116;2023-03-04T03:10:22;24.67;;;16.13;;
11203;SDS011;5659;49.408;11.116;2023-03-04T03:12:48;28.23;;;16.83;;
11203;SDS011;5659;49.408;11.116;2023-03-04T03:15:14;28.87;;;16.70;;
11203;SDS011;5659;49.408;11.116;2023-03-04T03:17:40;27.80;;;16.87;;
11203;SDS011;5659;49.408;11.116;2023-03-04T03:20:07;31.10;;;18.50;;
11203;SDS011;5659;49.408;11.116;2023-03-04T03:22:33;29.07;;;17.60;;
11203;SDS011;5659;49.408;11.116;2023-03-04T03:24:59;30.17;;;17.43;;
11203;SDS011;5659;49.408;11.116;2023-03-04T03:27:25;30.83;;;17.13;;
11203;SDS011;5659;49.408;11.116;2023-03-04T03:29:51;32.23;;;18.00;;
11203;SDS011;5659;49.408;11.116;2023-03-04T03:32:17;28.73;;;17.23;;
11203;SDS011;5659;49.408;11.116;2023-03-04T03:34:43;27.90;;;17.13;;
11203;SDS011;5659;49.408;11.116;2023-03-04T03:37:09;29.50;;;17.70;;
11203;SDS011;5659;49.408;11.116;2023-03-04T03:39:35;34.00;;;18.70;;
11203;SDS011;5659;49.408;11.116;2023-03-04T03:42:01;28.43;;;17.33;;
11203;SDS011;5659;49.408;11.116;2023-03-04T03:44:27;30.83;;;18.63;;
11203;SDS011;5659;49.408;11.116;2023-03-04T03:46:53;30.27;;;17.73;;
11203;SDS011;5659;49.408;11.116;2023-03-04T03:49:19;30.43;;;18.60;;
11203;SDS011;5659;49.408;11.116;2023-03-04T03:51:45;33.73;;;19.53;;
11203;SDS011;5659;49.408;11.116;2023-03-04T03:54:11;30.43;;;19.30;;
11203;SDS011;5659;49.408;11.116;2023-03-04T03:56:37;32.47;;;19.17;;
11203;SDS011;5659;49.408;11.116;2023-03-04T03:59:03;29.97;;;19.43;;
11203;SDS011;5659;49.408;11.116;2023-03-04T04:01:29;33.60;;;21.10;;
11203;SDS011;5659;49.408;11.116;2023-03-04T04:03:55;36.30;;;20.93;;
11203;SDS011;5659;49.408;11.116;2023-03-04T04:06:21;41.17;;;22.07;;
11203;SDS011;5659;49.408;11.116;2023-03-04T04:08:47;33.27;;;21.13;;
11203;SDS011;5659;49.408;11.116;2023-03-04T04:11:13;34.67;;;22.53;;
11203;SDS011;5659;49.408;11.116;2023-03-04T04:13:39;37.43;;;21.80;;
11203;SDS011;5659;49.408;11.116;2023-03-04T04:16:05;40.67;;;22.77;;
11203;SDS011;5659;49.408;11.116;2023-03-04T04:18:31;36.03;;;21.63;;
11203;SDS011;5659;49.408;11.116;2023-03-04T04:20:57;36.53;;;22.63;;
11203;SDS011;5659;49.408;11.116;2023-03-04T04:23:23;40.63;;;22.23;;
11203;SDS011;5659;49.408;11.116;2023-03-04T04:25:49;35.17;;;22.63;;
11203;SDS011;5659;49.408;11.116;2023-03-04T04:28:15;37.07;;;21.77;;
11203;SDS011;5659;49.408;11.116;2023-03-04T04:30:41;36.93;;;22.90;;
11203;SDS011;5659;49.408;11.116;2023-03-04T04:33:07;33.70;;;21.93;;
11203;SDS011;5659;49.408;11.116;2023-03-04T04:35:34;34.73;;;21.93;;
11203;SDS011;5659;49.408;11.116;2023-03-04T04:38:02;31.30;;;20.63;;
11203;SDS011;5659;49.408;11.116;2023-03-04T04:40:29;38.07;;;21.77;;
11203;SDS011;5659;49.408;11.116;2023-03-04T04:42:55;33.17;;;20.47;;
11203;SDS011;5659;49.408;11.116;2023-03-04T04:45:21;36.13;;;20.20;;
11203;SDS011;5659;49.408;11.116;2023-03-04T04:47:48;32.30;;;20.00;;
11203;SDS011;5659;49.408;11.116;2023-03-04T04:50:14;31.53;;;20.33;;
11203;SDS011;5659;49.408;11.116;2023-03-04T04:52:40;34.80;;;21.20;;
11203;SDS011;5659;49.408;11.116;2023-03-04T04:55:06;35.43;;;20.27;;
11203;SDS011;5659;49.408;11.116;2023-03-04T04:57:33;34.63;;;20.10;;
11203;SDS011;5659;49.408;11.116;2023-03-04T04:59:59;31.43;;;18.83;;
11203;SDS011;5659;49.408;11.116;2023-03-04T05:02:24;33.67;;;20.17;;
11203;SDS011;5659;49.408;11.116;2023-03-04T05:04:50;31.27;;;19.60;;
11203;SDS011;5659;49.408;11.116;2023-03-04T05:07:17;33.30;;;20.33;;
11203;SDS011;5659;49.408;11.116;2023-03-04T05:09:43;32.97;;;19.73;;
11203;SDS011;5659;49.408;11.116;2023-03-04T05:12:10;33.37;;;19.37;;
11203;SDS011;5659;49.408;11.116;2023-03-04T05:14:36;32.93;;;19.67;;
11203;SDS011;5659;49.408;11.116;2023-03-04T05:17:02;30.60;;;19.20;;
11203;SDS011;5659;49.408;11.116;2023-03-04T05:19:28;30.37;;;18.77;;
11203;SDS011;5659;49.408;11.116;2023-03-04T05:21:54;32.67;;;18.90;;
11203;SDS011;5659;49.408;11.116;2023-03-04T05:24:20;34.37;;;19.23;;
11203;SDS011;5659;49.408;11.116;2023-03-04T05:26:46;30.43;;;19.07;;
11203;SDS011;5659;49.408;11.116;2023-03-04T05:29:12;32.10;;;19.43;;
11203;SDS011;5659;49.408;11.116;2023-03-04T05:31:38;32.77;;;20.37;;
11203;SDS011;5659;49.408;11.116;2023-03-04T05:34:04;33.60;;;18.53;;
11203;SDS011;5659;49.408;11.116;2023-03-04T05:36:30;31.13;;;18.07;;
11203;SDS011;5659;49.408;11.116;2023-03-04T05:38:56;33.07;;;18.63;;
11203;SDS011;5659;49.408;11.116;2023-03-04T05:41:22;34.63;;;19.10;;
11203;SDS011;5659;49.408;11.116;2023-03-04T05:43:48;37.87;;;19.47;;
11203;SDS011;5659;49.408;11.116;2023-03-04T05:46:15;33.07;;;19.77;;
11203;SDS011;5659;49.408;11.116;2023-03-04T05:48:42;36.77;;;19.33;;
11203;SDS011;5659;49.408;11.116;2023-03-04T05:51:08;35.27;;;19.43;;
11203;SDS011;5659;49.408;11.116;2023-03-04T05:53:34;36.00;;;19.40;;
11203;SDS011;5659;49.408;11.116;2023-03-04T05:56:08;33.33;;;20.27;;
11203;SDS011;5659;49.408;11.116;2023-03-04T05:58:34;40.13;;;21.60;;
11203;SDS011;5659;49.408;11.116;2023-03-04T06:01:00;41.27;;;21.63;;
11203;SDS011;5659;49.408;11.116;2023-03-04T06:03:26;40.27;;;20.87;;
11203;SDS011;5659;49.408;11.116;2023-03-04T06:05:52;41.40;;;21.33;;
11203;SDS011;5659;49.408;11.116;2023-03-04T06:08:18;39.73;;;22.33;;
11203;SDS011;5659;49.408;11.116;2023-03-04T06:10:44;37.03;;;21.63;;
11203;SDS011;5659;49.408;11.116;2023-03-04T06:13:10;41.77;;;21.63;;
11203;SDS011;5659;49.408;11.116;2023-03-04T06:15:36;42.27;;;22.10;;
11203;SDS011;5659;49.408;11.116;2023-03-04T06:18:03;41.13;;;20.57;;
11203;SDS011;5659;49.408;11.116;2023-03-04T06:20:29;40.60;;;21.53;;
11203;SDS011;5659;49.408;11.116;2023-03-04T06:22:55;41.13;;;21.47;;
11203;SDS011;5659;49.408;11.116;2023-03-04T06:25:21;37.87;;;19.43;;
11203;SDS011;5659;49.408;11.116;2023-03-04T06:27:47;37.63;;;20.03;;
11203;SDS011;5659;49.408;11.116;2023-03-04T06:30:13;38.10;;;21.37;;
11203;SDS011;5659;49.408;11.116;2023-03-04T06:32:39;39.17;;;20.60;;
11203;SDS011;5659;49.408;11.116;2023-03-04T06:35:08;41.63;;;22.17;;
11203;SDS011;5659;49.408;11.116;2023-03-04T06:37:34;38.50;;;22.07;;
11203;SDS011;5659;49.408;11.116;2023-03-04T06:40:00;46.30;;;22.57;;
11203;SDS011;5659;49.408;11.116;2023-03-04T06:42:27;41.27;;;21.47;;
11203;SDS011;5659;49.408;11.116;2023-03-04T06:44:53;41.03;;;21.93;;
11203;SDS011;5659;49.408;11.116;2023-03-04T06:47:19;43.90;;;22.30;;
11203;SDS011;5659;49.408;11.116;2023-03-04T06:49:45;42.67;;;21.93;;
11203;SDS011;5659;49.408;11.116;2023-03-04T06:52:11;45.07;;;21.60;;
11203;SDS011;5659;49.408;11.116;2023-03-04T06:54:37;45.40;;;22.90;;
11203;SDS011;5659;49.408;11.116;2023-03-04T06:57:03;39.37;;;21.00;;
11203;SDS011;5659;49.408;11.116;2023-03-04T06:59:29;44.10;;;21.73;;
11203;SDS011;5659;49.408;11.116;2023-03-04T07:01:55;40.50;;;21.07;;
11203;SDS011;5659;49.408;11.116;2023-03-04T07:04:21;43.83;;;21.80;;
11203;SDS011;5659;49.408;11.116;2023-03-04T07:06:48;41.93;;;21.73;;
11203;SDS011;5659;49.408;11.116;2023-03-04T07:09:14;42.53;;;20.63;;
11203;SDS011;5659;49.408;11.116;2023-03-04T07:11:40;38.80;;;21.03;;
11203;SDS011;5659;49.408;11.116;2023-03-04T07:14:06;38.13;;;20.30;;
11203;SDS011;5659;49.408;11.116;2023-03-04T07:16:32;40.73;;;20.20;;
11203;SDS011;5659;49.408;11.116;2023-03-04T07:18:58;36.83;;;19.17;;
11203;SDS011;5659;49.408;11.116;2023-03-04T07:21:24;38.10;;;20.60;;
11203;SDS011;5659;49.408;11.116;2023-03-04T07:23:50;35.87;;;19.90;;
11203;SDS011;5659;49.408;11.116;2023-03-04T07:26:16;41.57;;;21.27;;
11203;SDS011;5659;49.408;11.116;2023-03-04T07:28:42;37.60;;;20.07;;
11203;SDS011;5659;49.408;11.116;2023-03-04T07:33:34;39.07;;;21.57;;
11203;SDS011;5659;49.408;11.116;2023-03-04T07:36:00;40.87;;;21.30;;
11203;SDS011;5659;49.408;11.116;2023-03-04T07:38:26;38.20;;;21.13;;
11203;SDS011;5659;49.408;11.116;2023-03-04T07:40:56;40.73;;;20.30;;
11203;SDS011;5659;49.408;11.116;2023-03-04T07:43:22;44.33;;;21.00;;
11203;SDS011;5659;49.408;11.116;2023-03-04T07:45:48;42.17;;;20.50;;
11203;SDS011;5659;49.408;11.116;2023-03-04T07:48:14;40.00;;;21.07;;
11203;SDS011;5659;49.408;11.116;2023-03-04T07:50:40;37.87;;;21.03;;
11203;SDS011;5659;49.408;11.116;2023-03-04T07:53:06;34.37;;;20.20;;
11203;SDS011;5659;49.408;11.116;2023-03-04T07:55:32;34.10;;;18.77;;
11203;SDS011;5659;49.408;11.116;2023-03-04T07:57:58;37.00;;;20.13;;
11203;SDS011;5659;49.408;11.116;2023-03-04T08:00:24;35.00;;;19.63;;
11203;SDS011;5659;49.408;11.116;2023-03-04T08:02:50;32.40;;;19.17;;
11203;SDS011;5659;49.408;11.116;2023-03-04T08:05:16;36.73;;;19.30;;
11203;SDS011;5659;49.408;11.116;2023-03-04T08:07:42;31.47;;;18.60;;
11203;SDS011;5659;49.408;11.116;2023-03-04T08:10:08;34.63;;;19.13;;
11203;SDS011;5659;49.408;11.116;2023-03-04T08:12:34;31.37;;;18.63;;
11203;SDS011;5659;49.408;11.116;2023-03-04T08:15:01;34.40;;;19.90;;
11203;SDS011;5659;49.408;11.116;2023-03-04T08:17:27;33.80;;;19.13;;
11203;SDS011;5659;49.408;11.116;2023-03-04T08:19:54;30.83;;;18.27;;
11203;SDS011;5659;49.408;11.116;2023-03-04T08:22:19;32.60;;;18.77;;
11203;SDS011;5659;49.408;11.116;2023-03-04T08:24:45;29.33;;;17.53;;
11203;SDS011;5659;49.408;11.116;2023-03-04T08:27:11;31.50;;;17.33;;
11203;SDS011;5659;49.408;11.116;2023-03-04T08:29:37;31.80;;;17.53;;
11203;SDS011;5659;49.408;11.116;2023-03-04T08:32:03;31.43;;;17.33;;
11203;SDS011;5659;49.408;11.116;2023-03-04T08:34:29;31.90;;;17.83;;
11203;SDS011;5659;49.408;11.116;2023-03-04T08:36:55;29.33;;;17.23;;
11203;SDS011;5659;49.408;11.116;2023-03-04T08:39:21;30.60;;;17.20;;
11203;SDS011;5659;49.408;11.116;2023-03-04T08:41:47;33.03;;;17.07;;
11203;SDS011;5659;49.408;11.116;2023-03-04T08:44:14;28.80;;;17.27;;
11203;SDS011;5659;49.408;11.116;2023-03-04T08:46:40;25.90;;;16.70;;
11203;SDS011;5659;49.408;11.116;2023-03-04T08:49:07;28.63;;;17.77;;
11203;SDS011;5659;49.408;11.116;2023-03-04T08:51:33;27.60;;;15.87;;
11203;SDS011;5659;49.408;11.116;2023-03-04T08:54:00;27.70;;;16.20;;
11203;SDS011;5659;49.408;11.116;2023-03-04T08:56:26;32.27;;;17.13;;
11203;SDS011;5659;49.408;11.116;2023-03-04T08:58:52;28.13;;;15.90;;
11203;SDS011;5659;49.408;11.116;2023-03-04T09:01:18;30.77;;;15.57;;
11203;SDS011;5659;49.408;11.116;2023-03-04T09:03:44;31.47;;;16.57;;
11203;SDS011;5659;49.408;11.116;2023-03-04T09:06:11;27.33;;;16.07;;
11203;SDS011;5659;49.408;11.116;2023-03-04T09:08:38;28.30;;;16.50;;
11203;SDS011;5659;49.408;11.116;2023-03-04T09:11:04;28.43;;;16.40;;
11203;SDS011;5659;49.408;11.116;2023-03-04T09:13:30;27.93;;;16.33;;
11203;SDS011;5659;49.408;11.116;2023-03-04T09:15:56;28.60;;;17.07;;
11203;SDS011;5659;49.408;11.116;2023-03-04T09:18:22;29.83;;;16.63;;
11203;SDS011;5659;49.408;11.116;2023-03-04T09:20:48;28.60;;;17.30;;
11203;SDS011;5659;49.408;11.116;2023-03-04T09:23:14;27.60;;;16.93;;
11203;SDS011;5659;49.408;11.116;2023-03-04T09:25:41;31.50;;;17.43;;
11203;SDS011;5659;49.408;11.116;2023-03-04T09:28:07;26.97;;;17.30;;
11203;SDS011;5659;49.408;11.116;2023-03-04T09:30:33;28.43;;;18.03;;
11203;SDS011;5659;49.408;11.116;2023-03-04T09:32:59;27.43;;;17.50;;
11203;SDS011;5659;49.408;11.116;2023-03-04T09:35:25;25.90;;;16.97;;
11203;SDS011;5659;49.408;11.116;2023-03-04T09:37:53;32.37;;;18.03;;
11203;SDS011;5659;49.408;11.116;2023-03-04T09:40:21;27.93;;;15.57;;
11203;SDS011;5659;49.408;11.116;2023-03-04T09:42:49;30.67;;;18.63;;
11203;SDS011;5659;49.408;11.116;2023-03-04T09:45:18;30.50;;;18.10;;
11203;SDS011;5659;49.408;11.116;2023-03-04T09:47:44;28.80;;;17.97;;
11203;SDS011;5659;49.408;11.116;2023-03-04T09:50:11;30.23;;;18.53;;
11203;SDS011;5659;49.408;11.116;2023-03-04T09:55:50;33.00;;;18.03;;
11203;SDS011;5659;49.408;11.116;2023-03-04T10:03:45;27.07;;;16.17;;
11203;SDS011;5659;49.408;11.116;2023-03-04T10:06:15;27.47;;;16.40;;
11203;SDS011;5659;49.408;11.116;2023-03-04T10:11:28;30.30;;;17.00;;
11203;SDS011;5659;49.408;11.116;2023-03-04T10:21:59;28.57;;;16.33;;
11203;SDS011;5659;49.408;11.116;2023-03-04T10:24:26;26.47;;;16.53;;
11203;SDS011;5659;49.408;11.116;2023-03-04T10:27:00;25.50;;;16.90;;
11203;SDS011;5659;49.408;11.116;2023-03-04T10:29:27;24.07;;;15.63;;
11203;SDS011;5659;49.408;11.116;2023-03-04T10:31:54;25.63;;;17.20;;
11203;SDS011;5659;49.408;11.116;2023-03-04T10:34:21;23.07;;;15.20;;
11203;SDS011;5659;49.408;11.116;2023-03-04T10:37:04;26.13;;;16.43;;
11203;SDS011;5659;49.408;11.116;2023-03-04T10:39:41;27.33;;;17.00;;
11203;SDS011;5659;49.408;11.116;2023-03-04T10:44:43;23.97;;;16.03;;
11203;SDS011;5659;49.408;11.116;2023-03-04T10:47:15;24.77;;;15.70;;
11203;SDS011;5659;49.408;11.116;2023-03-04T10:49:48;26.20;;;16.53;;
11203;SDS011;5659;49.408;11.116;2023-03-04T10:54:51;24.33;;;15.33;;
11203;SDS011;5659;49.408;11.116;2023-03-04T10:57:19;26.20;;;15.53;;
11203;SDS011;5659;49.408;11.116;2023-03-04T10:59:46;23.30;;;15.77;;
11203;SDS011;5659;49.408;11.116;2023-03-04T11:04:52;22.30;;;14.73;;
11203;SDS011;5659;49.408;11.116;2023-03-04T11:07:19;26.03;;;15.13;;
11203;SDS011;5659;49.408;11.116;2023-03-04T11:09:45;22.47;;;13.67;;
11203;SDS011;5659;49.408;11.116;2023-03-04T11:12:12;26.33;;;14.37;;
11203;SDS011;5659;49.408;11.116;2023-03-04T11:14:40;28.43;;;14.20;;
11203;SDS011;5659;49.408;11.116;2023-03-04T11:17:16;21.23;;;14.87;;
11203;SDS011;5659;49.408;11.116;2023-03-04T11:19:43;24.37;;;14.90;;
11203;SDS011;5659;49.408;11.116;2023-03-04T11:22:12;23.90;;;14.50;;
11203;SDS011;5659;49.408;11.116;2023-03-04T11:24:40;21.20;;;14.00;;
11203;SDS011;5659;49.408;11.116;2023-03-04T11:27:21;23.37;;;13.83;;
11203;SDS011;5659;49.408;11.116;2023-03-04T11:29:54;21.37;;;14.10;;
11203;SDS011;5659;49.408;11.116;2023-03-04T11:32:33;20.80;;;13.60;;
11203;SDS011;5659;49.408;11.116;2023-03-04T11:35:07;19.67;;;14.17;;
11203;SDS011;5659;49.408;11.116;2023-03-04T11:37:38;20.13;;;14.43;;
11203;SDS011;5659;49.408;11.116;2023-03-04T11:43:06;23.23;;;14.37;;
11203;SDS011;5659;49.408;11.116;2023-03-04T11:50:42;21.77;;;14.30;;
11203;SDS011;5659;49.408;11.116;2023-03-04T11:55:45;19.93;;;13.70;;
11203;SDS011;5659;49.408;11.116;2023-03-04T12:00:55;22.60;;;14.43;;
11203;SDS011;5659;49.408;11.116;2023-03-04T12:06:11;20.63;;;14.27;;
11203;SDS011;5659;49.408;11.116;2023-03-04T12:08:50;24.67;;;14.70;;
11203;SDS011;5659;49.408;11.116;2023-03-04T12:13:54;20.93;;;14.47;;
11203;SDS011;5659;49.408;11.116;2023-03-04T12:26:59;25.77;;;16.10;;
11203;SDS011;5659;49.408;11.116;2023-03-04T12:29:48;23.40;;;15.20;;
11203;SDS011;5659;49.408;11.116;2023-03-04T12:39:39;25.10;;;14.93;;
11203;SDS011;5659;49.408;11.116;2023-03-04T12:44:45;23.03;;;15.50;;
11203;SDS011;5659;49.408;11.116;2023-03-04T12:49:47;22.07;;;15.10;;
11203;SDS011;5659;49.408;11.116;2023-03-04T12:55:02;23.27;;;14.70;;
11203;SDS011;5659;49.408;11.116;2023-03-04T12:57:28;22.00;;;14.60;;
11203;SDS011;5659;49.408;11.116;2023-03-04T13:10:31;23.23;;;14.57;;
11203;SDS011;5659;49.408;11.116;2023-03-04T13:12:58;22.50;;;13.47;;
11203;SDS011;5659;49.408;11.116;2023-03-04T13:17:51;25.13;;;14.47;;
11203;SDS011;5659;49.408;11.116;2023-03-04T13:25:32;23.13;;;14.27;;
11203;SDS011;5659;49.408;11.116;2023-03-04T13:38:21;28.93;;;15.10;;
11203;SDS011;5659;49.408;11.116;2023-03-04T13:51:15;21.70;;;13.63;;
11203;SDS011;5659;49.408;11.116;2023-03-04T13:53:43;22.17;;;13.33;;
11203;SDS011;5659;49.408;11.116;2023-03-04T13:58:48;18.37;;;12.83;;
11203;SDS011;5659;49.408;11.116;2023-03-04T14:01:26;23.77;;;13.53;;
11203;SDS011;5659;49.408;11.116;2023-03-04T14:03:53;24.57;;;13.93;;
11203;SDS011;5659;49.408;11.116;2023-03-04T14:06:23;21.60;;;13.50;;
11203;SDS011;5659;49.408;11.116;2023-03-04T14:08:50;25.00;;;13.67;;
11203;SDS011;5659;49.408;11.116;2023-03-04T14:11:27;22.43;;;13.20;;
11203;SDS011;5659;49.408;11.116;2023-03-04T14:13:55;21.43;;;13.87;;
11203;SDS011;5659;49.408;11.116;2023-03-04T14:16:22;24.43;;;14.27;;
11203;SDS011;5659;49.408;11.116;2023-03-04T14:19:04;23.60;;;14.13;;
11203;SDS011;5659;49.408;11.116;2023-03-04T14:21:30;23.77;;;14.77;;
11203;SDS011;5659;49.408;11.116;2023-03-04T14:24:01;32.63;;;15.30;;
11203;SDS011;5659;49.408;11.116;2023-03-04T14:26:27;29.57;;;14.57;;
11203;SDS011;5659;49.408;11.116;2023-03-04T14:28:55;30.83;;;15.23;;
11203;SDS011;5659;49.408;11.116;2023-03-04T14:31:23;25.70;;;15.43;;
11203;SDS011;5659;49.408;11.116;2023-03-04T14:33:52;25.47;;;14.30;;
11203;SDS011;5659;49.408;11.116;2023-03-04T14:36:23;22.60;;;14.40;;
11203;SDS011;5659;49.408;11.116;2023-03-04T14:38:51;26.70;;;14.67;;
11203;SDS011;5659;49.408;11.116;2023-03-04T14:41:20;24.97;;;14.27;;
11203;SDS011;5659;49.408;11.116;2023-03-04T14:43:58;24.17;;;14.27;;
11203;SDS011;5659;49.408;11.116;2023-03-04T14:46:28;23.47;;;14.57;;
11203;SDS011;5659;49.408;11.116;2023-03-04T14:48:55;20.10;;;13.43;;
11203;SDS011;5659;49.408;11.116;2023-03-04T14:51:29;25.43;;;14.83;;
11203;SDS011;5659;49.408;11.116;2023-03-04T14:53:55;32.27;;;14.70;;
11203;SDS011;5659;49.408;11.116;2023-03-04T14:56:28;27.07;;;14.37;;
11203;SDS011;5659;49.408;11.116;2023-03-04T14:58:55;21.63;;;13.67;;
11203;SDS011;5659;49.408;11.116;2023-03-04T15:01:22;25.97;;;13.97;;
11203;SDS011;5659;49.408;11.116;2023-03-04T15:03:59;21.80;;;13.73;;
11203;SDS011;5659;49.408;11.116;2023-03-04T15:06:30;28.57;;;14.73;;
11203;SDS011;5659;49.408;11.116;2023-03-04T15:11:24;23.10;;;13.87;;
11203;SDS011;5659;49.408;11.116;2023-03-04T15:13:52;29.43;;;14.10;;
11203;SDS011;5659;49.408;11.116;2023-03-04T15:16:19;22.23;;;13.73;;
11203;SDS011;5659;49.408;11.116;2023-03-04T15:19:03;31.07;;;14.70;;
11203;SDS011;5659;49.408;11.116;2023-03-04T15:23:59;27.23;;;14.23;;
11203;SDS011;5659;49.408;11.116;2023-03-04T15:26:27;28.87;;;13.30;;
11203;SDS011;5659;49.408;11.116;2023-03-04T15:28:53;32.10;;;13.17;;
11203;SDS011;5659;49.408;11.116;2023-03-04T15:31:20;21.97;;;12.90;;
11203;SDS011;5659;49.408;11.116;2023-03-04T15:33:46;24.90;;;13.27;;
11203;SDS011;5659;49.408;11.116;2023-03-04T15:36:13;27.43;;;13.50;;
11203;SDS011;5659;49.408;11.116;2023-03-04T15:38:40;35.90;;;13.10;;
11203;SDS011;5659;49.408;11.116;2023-03-04T15:41:10;23.13;;;13.57;;
11203;SDS011;5659;49.408;11.116;2023-03-04T15:43:36;23.00;;;13.67;;
11203;SDS011;5659;49.408;11.116;2023-03-04T15:46:02;27.93;;;14.10;;
11203;SDS011;5659;49.408;11.116;2023-03-04T15:48:28;29.70;;;14.33;;
11203;SDS011;5659;49.408;11.116;2023-03-04T15:50:55;25.33;;;14.40;;
11203;SDS011;5659;49.408;11.116;2023-03-04T15:53:32;25.17;;;13.60;;
11203;SDS011;5659;49.408;11.116;2023-03-04T15:56:00;26.70;;;14.63;;
11203;SDS011;5659;49.408;11.116;2023-03-04T15:58:27;26.30;;;13.10;;
11203;SDS011;5659;49.408;11.116;2023-03-04T16:00:53;23.07;;;13.00;;
11203;SDS011;5659;49.408;11.116;2023-03-04T16:03:20;26.27;;;14.17;;
11203;SDS011;5659;49.408;11.116;2023-03-04T16:05:47;28.70;;;13.67;;
11203;SDS011;5659;49.408;11.116;2023-03-04T16:08:14;25.83;;;12.70;;
11203;SDS011;5659;49.408;11.116;2023-03-04T16:10:41;34.83;;;14.70;;
11203;SDS011;5659;49.408;11.116;2023-03-04T16:13:15;34.73;;;14.03;;
11203;SDS011;5659;49.408;11.116;2023-03-04T16:15:41;23.43;;;12.70;;
11203;SDS011;5659;49.408;11.116;2023-03-04T16:18:07;27.00;;;14.43;;
11203;SDS011;5659;49.408;11.116;2023-03-04T16:20:33;23.47;;;13.20;;
11203;SDS011;5659;49.408;11.116;2023-03-04T16:23:00;28.60;;;12.97;;
11203;SDS011;5659;49.408;11.116;2023-03-04T16:25:26;30.83;;;13.03;;